Time;durP1;ratioP1;P1;durP2;ratioP2;P2;SDS_P1;SDS_P2;PMS_P1;PMS_P2;Temp;Humidity;BMP_temperature;BMP_pressure;BME280_temperature;BME280_humidity;BME280_pressure;Samples;Min_cycle;Max_cycle;Signal;HPM_P1;HPM_P2
2022/10/18 06:32:04;;;;;;;13.32;3.25;;;15.70;99.90;;;;;;11569177;23;20114;-77
2022/10/18 06:37:06;;;;;;;9.95;3.60;;;15.80;99.90;;;;;;10377736;28;20080;-76
2022/10/18 06:42:08;;;;;;;10.52;3.65;;;15.80;99.90;;;;;;10377266;28;20475;-81
2022/10/18 06:47:12;;;;;;;6.05;3.03;;;15.80;99.90;;;;;;10377541;28;20103;-80
2022/10/18 06:52:13;;;;;;;11.20;3.50;;;15.90;99.90;;;;;;10404587;28;20054;-77
2022/10/18 06:57:15;;;;;;;9.38;3.30;;;15.90;99.90;;;;;;10381826;28;20045;-77
2022/10/18 07:02:18;;;;;;;10.20;3.00;;;16.00;99.90;;;;;;10376616;28;20050;-77
2022/10/18 07:07:20;;;;;;;7.55;3.25;;;16.00;99.90;;;;;;10376724;28;20042;-78
2022/10/18 07:12:22;;;;;;;10.07;3.42;;;16.20;99.90;;;;;;10376075;28;20057;-76
2022/10/18 07:17:26;;;;;;;8.13;3.83;;;16.30;99.90;;;;;;10376125;28;20050;-77
2022/10/18 07:22:28;;;;;;;10.40;3.60;;;16.30;99.90;;;;;;10376047;28;20046;-75
2022/10/18 07:27:30;;;;;;;8.30;3.65;;;16.40;99.90;;;;;;10371551;28;20116;-77
2022/10/18 07:32:34;;;;;;;6.57;3.38;;;16.40;99.90;;;;;;10370006;28;20115;-77
2022/10/18 07:37:35;;;;;;;10.98;3.58;;;16.60;99.90;;;;;;10370563;28;20054;-77
2022/10/18 07:42:37;;;;;;;12.60;3.47;;;16.70;99.90;;;;;;10382326;28;20487;-78
2022/10/18 07:47:41;;;;;;;8.57;3.67;;;16.60;99.90;;;;;;10392587;28;20108;-77
2022/10/18 07:52:42;;;;;;;7.95;3.08;;;16.70;99.90;;;;;;10371199;28;20478;-78
2022/10/18 07:57:44;;;;;;;9.38;3.25;;;16.80;99.90;;;;;;10372481;28;20107;-76
2022/10/18 08:02:48;;;;;;;10.27;3.15;;;16.80;99.90;;;;;;10369249;28;20050;-78
2022/10/18 08:07:49;;;;;;;6.97;3.33;;;16.80;99.90;;;;;;10369432;28;20077;-78
2022/10/18 08:12:52;;;;;;;11.25;3.83;;;16.80;99.90;;;;;;10368916;28;20054;-78
2022/10/18 08:17:55;;;;;;;12.90;3.47;;;16.90;99.90;;;;;;10368650;28;20461;-79
2022/10/18 08:22:57;;;;;;;9.55;3.38;;;17.00;99.90;;;;;;10369257;28;20120;-77
2022/10/18 08:28:00;;;;;;;10.60;3.47;;;17.20;99.90;;;;;;10368281;28;20050;-79
2022/10/18 08:33:03;;;;;;;7.75;3.65;;;17.30;99.90;;;;;;10368497;28;20163;-79
2022/10/18 08:38:10;;;;;;;12.18;3.55;;;17.50;99.90;;;;;;10368173;28;20084;-78
2022/10/18 08:43:24;;;;;;;8.63;3.53;;;17.60;99.90;;;;;;10387056;28;20050;-78
2022/10/18 08:48:35;;;;;;;10.02;3.75;;;17.60;99.90;;;;;;10390173;28;20046;-78
2022/10/18 08:53:48;;;;;;;6.80;3.67;;;17.70;99.90;;;;;;10376364;28;20470;-72
2022/10/18 08:58:50;;;;;;;10.98;4.15;;;17.80;99.90;;;;;;10367981;28;20057;-74
2022/10/18 09:04:23;;;;;;;7.53;3.40;;;17.90;99.90;;;;;;10374214;28;20073;-78
2022/10/18 09:09:35;;;;;;;8.73;3.95;;;18.10;99.90;;;;;;10375780;28;20128;-76
2022/10/18 09:15:12;;;;;;;10.93;3.92;;;18.20;99.90;;;;;;10335388;28;20100;-76
2022/10/18 09:20:23;;;;;;;8.23;4.03;;;18.40;99.90;;;;;;10335565;28;20054;-77
2022/10/18 09:25:33;;;;;;;9.07;3.80;;;18.70;99.90;;;;;;10376214;28;20057;-76
2022/10/18 09:30:45;;;;;;;10.18;4.30;;;18.90;99.90;;;;;;10379828;28;20062;-76
2022/10/18 09:35:54;;;;;;;8.38;4.00;;;19.10;99.90;;;;;;10375531;28;20058;-77
2022/10/18 09:41:02;;;;;;;8.70;3.38;;;19.20;99.90;;;;;;10375541;28;20552;-77
2022/10/18 09:46:06;;;;;;;6.23;3.40;;;19.10;99.90;;;;;;10373946;28;20113;-76
2022/10/18 09:51:16;;;;;;;6.28;3.42;;;19.20;99.90;;;;;;10373468;28;20078;-78
2022/10/18 09:56:25;;;;;;;7.53;3.60;;;19.20;99.90;;;;;;10373194;28;20144;-75
2022/10/18 10:01:32;;;;;;;8.00;3.50;;;19.30;99.90;;;;;;10374513;28;20054;-78
2022/10/18 10:06:37;;;;;;;11.35;4.13;;;19.30;99.90;;;;;;10373654;28;20462;-78
2022/10/18 10:11:45;;;;;;;8.05;3.78;;;19.30;99.90;;;;;;10374202;28;20100;-77
2022/10/18 10:16:53;;;;;;;9.05;3.55;;;19.30;99.90;;;;;;10372593;28;20431;-77
2022/10/18 10:22:02;;;;;;;;;;;19.40;99.90;;;;;;10373460;28;20116;-76
2022/10/18 10:27:07;;;;;;;7.68;3.50;;;19.50;99.90;;;;;;10372629;28;20294;-78
2022/10/18 10:32:13;;;;;;;13.63;3.80;;;19.60;99.90;;;;;;10372627;28;20054;-76
2022/10/18 10:37:38;;;;;;;7.72;3.60;;;19.70;99.90;;;;;;10372525;28;20137;-76
2022/10/18 10:42:57;;;;;;;9.68;3.53;;;19.80;99.90;;;;;;10366828;28;20251;-78
2022/10/18 10:48:15;;;;;;;7.95;3.10;;;19.90;99.90;;;;;;10381474;28;20080;-76
2022/10/18 10:53:29;;;;;;;;;;;20.10;99.90;;;;;;10399250;28;20049;-78
2022/10/18 10:58:37;;;;;;;7.07;3.10;;;20.20;99.90;;;;;;10373318;28;19948;-76
2022/10/18 11:03:46;;;;;;;7.45;3.25;;;20.40;99.90;;;;;;10371277;28;20050;-76
2022/10/18 11:08:51;;;;;;;7.47;2.83;;;20.60;99.90;;;;;;10371807;28;20058;-78
2022/10/18 11:14:01;;;;;;;11.07;3.17;;;20.70;99.90;;;;;;10370604;28;20054;-78
2022/10/18 11:19:17;;;;;;;5.43;2.58;;;20.80;99.90;;;;;;10371131;28;20105;-80
2022/10/18 11:24:24;;;;;;;6.90;2.80;;;21.00;99.90;;;;;;10370679;28;20108;-77
2022/10/18 11:29:40;;;;;;;17.67;8.83;;;21.00;99.90;;;;;;10370430;28;20069;-78
2022/10/18 11:35:10;;;;;;;14.13;5.88;;;21.10;99.70;;;;;;10369711;28;20069;-78
2022/10/18 11:40:48;;;;;;;6.55;2.83;;;21.20;99.60;;;;;;10370491;28;20080;-78
2022/10/18 11:45:59;;;;;;;6.50;3.05;;;21.30;99.70;;;;;;10367625;28;20045;-77
2022/10/18 11:51:10;;;;;;;10.13;2.85;;;21.30;99.70;;;;;;10369479;28;20070;-77
2022/10/18 11:56:24;;;;;;;10.77;2.90;;;21.40;99.20;;;;;;10369660;28;20058;-76
2022/10/18 12:01:34;;;;;;;5.80;2.83;;;21.60;99.30;;;;;;10369538;28;20554;-79
2022/10/18 12:06:40;;;;;;;8.80;2.83;;;22.00;98.60;;;;;;10368820;28;20494;-78
2022/10/18 12:11:50;;;;;;;7.45;2.53;;;22.40;98.10;;;;;;10369022;28;20100;-77
2022/10/18 12:16:55;;;;;;;6.78;2.78;;;22.50;97.80;;;;;;10368815;28;20077;-77
2022/10/18 12:22:13;;;;;;;7.20;2.50;;;22.70;97.50;;;;;;10368829;28;20406;-80
2022/10/18 12:27:18;;;;;;;6.05;2.60;;;22.80;97.20;;;;;;10367924;28;20097;-79
2022/10/18 12:32:27;;;;;;;17.75;7.85;;;22.80;97.50;;;;;;10369179;28;20057;-78
2022/10/18 12:37:51;;;;;;;9.27;3.50;;;22.60;97.80;;;;;;10368152;28;20159;-78
2022/10/18 12:42:56;;;;;;;7.50;3.60;;;22.60;97.80;;;;;;10362717;28;20133;-78
2022/10/18 12:48:00;;;;;;;7.63;3.22;;;22.50;98.10;;;;;;10368949;28;20656;-79
2022/10/18 12:53:12;;;;;;;6.55;3.60;;;22.30;98.60;;;;;;10367768;28;20054;-78
2022/10/18 12:58:31;;;;;;;8.23;3.55;;;22.20;98.60;;;;;;10366986;28;20093;-76
2022/10/18 13:03:54;;;;;;;8.73;3.53;;;22.20;99.10;;;;;;10367614;28;20358;-78
2022/10/18 13:09:19;;;;;;;9.65;3.45;;;22.10;99.00;;;;;;10369440;28;20100;-77
2022/10/18 13:14:51;;;;;;;8.32;3.60;;;22.00;98.90;;;;;;10372789;28;20106;-77
2022/10/18 13:20:09;;;;;;;8.32;3.40;;;22.10;99.10;;;;;;10366860;28;20077;-79
2022/10/18 13:25:21;;;;;;;7.57;3.40;;;22.50;98.60;;;;;;10366180;28;20407;-77
2022/10/18 13:30:34;;;;;;;6.28;3.03;;;22.60;97.70;;;;;;10297054;28;20137;-78
2022/10/18 13:35:51;;;;;;;8.15;3.20;;;22.70;97.90;;;;;;10184977;29;20139;-76
2022/10/18 13:41:02;;;;;;;8.25;3.53;;;22.60;97.60;;;;;;10190700;29;20052;-79
2022/10/18 13:46:05;;;;;;;9.32;3.33;;;22.40;98.20;;;;;;10211807;29;20044;-80
2022/10/18 13:51:47;;;;;;;5.68;3.15;;;22.50;98.30;;;;;;10217774;29;20075;-78
2022/10/18 13:57:07;;;;;;;8.25;3.13;;;22.40;97.90;;;;;;10218844;29;20087;-78
2022/10/18 14:03:24;;;;;;;7.28;3.15;;;22.40;98.30;;;;;;10219155;29;20048;-79
2022/10/18 14:08:35;;;;;;;6.85;2.80;;;22.10;98.60;;;;;;10101907;29;20080;-80
2022/10/18 14:13:47;;;;;;;6.60;2.90;;;22.10;99.50;;;;;;10227527;29;20052;-77
2022/10/18 14:18:53;;;;;;;7.68;3.33;;;21.90;99.60;;;;;;10252116;29;20056;-78
2022/10/18 14:23:56;;;;;;;9.40;3.22;;;21.80;99.90;;;;;;10222113;29;20055;-78
2022/10/18 14:29:07;;;;;;;8.40;3.15;;;21.80;99.90;;;;;;10218084;29;20051;-77
2022/10/18 14:34:15;;;;;;;5.43;2.83;;;21.70;99.90;;;;;;10276967;28;20061;-77
2022/10/18 14:39:21;;;;;;;6.78;3.10;;;21.70;99.90;;;;;;10297037;28;20075;-79
2022/10/18 14:44:27;;;;;;;7.13;3.08;;;21.70;99.90;;;;;;10296590;28;20051;-78
2022/10/18 14:49:30;;;;;;;7.15;4.00;;;21.70;99.90;;;;;;10296755;28;20046;-79
2022/10/18 14:54:37;;;;;;;5.70;3.28;;;21.60;99.90;;;;;;10296329;28;20058;-80
2022/10/18 14:59:50;;;;;;;7.38;2.95;;;21.30;99.90;;;;;;10295993;28;20093;-80
2022/10/18 15:04:59;;;;;;;6.70;3.50;;;21.40;99.90;;;;;;10296079;28;20053;-80
2022/10/18 15:10:05;;;;;;;6.60;2.75;;;21.00;99.90;;;;;;10295777;28;20098;-79
2022/10/18 15:15:16;;;;;;;7.10;2.25;;;21.10;99.90;;;;;;10295793;28;20059;-78
2022/10/18 15:20:23;;;;;;;5.78;2.20;;;21.30;99.90;;;;;;10295550;28;20114;-80
2022/10/18 15:25:30;;;;;;;7.93;2.23;;;21.20;99.90;;;;;;10297558;28;20054;-79
2022/10/18 15:30:41;;;;;;;6.32;2.30;;;21.00;99.90;;;;;;10295313;28;20373;-79
2022/10/18 15:35:43;;;;;;;4.50;2.47;;;21.00;99.90;;;;;;10295125;28;20050;-77
2022/10/18 15:40:47;;;;;;;8.05;2.45;;;21.00;99.90;;;;;;10288251;28;20515;-81
2022/10/18 15:45:50;;;;;;;6.90;2.50;;;21.00;99.90;;;;;;10254189;28;20054;-79
2022/10/18 15:50:54;;;;;;;7.10;2.83;;;21.00;99.90;;;;;;10265062;28;20055;-80
2022/10/18 15:55:58;;;;;;;5.30;2.67;;;20.90;99.90;;;;;;10245378;28;20461;-77
2022/10/18 16:01:03;;;;;;;7.25;2.92;;;20.90;99.90;;;;;;10241339;29;20051;-78
2022/10/18 16:06:08;;;;;;;4.82;2.70;;;20.80;99.90;;;;;;10247691;29;20047;-79
2022/10/18 16:11:16;;;;;;;7.55;2.85;;;20.80;99.90;;;;;;10252920;28;20075;-78
2022/10/18 16:16:21;;;;;;;;;;;20.70;99.90;;;;;;10246740;29;20150;-81
2022/10/18 16:21:26;;;;;;;6.75;3.17;;;20.90;99.90;;;;;;10248118;28;19980;-79
2022/10/18 16:26:30;;;;;;;5.03;2.70;;;20.70;99.90;;;;;;10270428;28;20134;-79
2022/10/18 16:31:34;;;;;;;6.45;2.70;;;20.40;99.90;;;;;;10258151;28;20556;-80
2022/10/18 16:36:36;;;;;;;6.07;3.30;;;20.50;99.90;;;;;;10244909;29;20051;-80
2022/10/18 16:41:39;;;;;;;5.75;2.88;;;20.30;99.90;;;;;;10248641;28;20528;-77
2022/10/18 16:46:41;;;;;;;6.68;3.20;;;20.30;99.90;;;;;;10251366;28;20533;-80
2022/10/18 16:51:43;;;;;;;6.85;3.10;;;20.30;99.90;;;;;;10282526;28;20495;-78
2022/10/18 16:56:49;;;;;;;10.93;3.10;;;20.20;99.90;;;;;;10284397;28;20082;-79
2022/10/18 17:01:51;;;;;;;8.40;3.00;;;20.30;99.90;;;;;;10285244;28;20097;-81
2022/10/18 17:06:54;;;;;;;8.68;2.95;;;20.30;99.90;;;;;;10248027;28;20137;-79
2022/10/18 17:11:57;;;;;;;4.97;2.90;;;20.20;99.90;;;;;;10247265;29;20099;-79
2022/10/18 17:16:59;;;;;;;7.68;3.28;;;20.20;99.90;;;;;;10246371;29;20055;-80
2022/10/18 17:22:01;;;;;;;5.78;2.90;;;20.00;99.90;;;;;;10251665;28;20094;-80
2022/10/18 17:27:05;;;;;;;6.25;3.65;;;20.00;99.90;;;;;;10294839;28;20050;-79
2022/10/18 17:32:07;;;;;;;6.32;3.10;;;20.00;99.90;;;;;;10295306;28;20063;-79
2022/10/18 17:37:08;;;;;;;8.02;3.25;;;20.00;99.90;;;;;;10269281;28;20063;-79
2022/10/18 17:42:12;;;;;;;8.90;3.63;;;20.00;99.90;;;;;;10281426;29;20047;-79
2022/10/18 17:47:14;;;;;;;6.40;3.22;;;19.90;99.90;;;;;;10282580;29;20047;-77
2022/10/18 17:52:16;;;;;;;9.25;3.63;;;19.90;99.90;;;;;;10256714;28;20064;-79
2022/10/18 17:57:19;;;;;;;7.63;3.67;;;19.90;99.90;;;;;;10243281;28;20564;-78
2022/10/18 18:02:21;;;;;;;7.55;3.53;;;19.80;99.90;;;;;;10245802;28;20074;-78
2022/10/18 18:07:23;;;;;;;7.45;3.88;;;19.80;99.90;;;;;;10267891;28;20047;-80
2022/10/18 18:12:26;;;;;;;8.15;4.45;;;19.80;99.90;;;;;;10257222;28;20051;-80
2022/10/18 18:17:28;;;;;;;8.48;4.10;;;19.70;99.90;;;;;;10256078;28;20126;-77
2022/10/18 18:22:30;;;;;;;7.70;3.70;;;19.60;99.90;;;;;;10274293;28;20055;-79
2022/10/18 18:27:34;;;;;;;6.20;3.70;;;19.40;99.90;;;;;;10267574;28;20105;-80
2022/10/18 18:32:35;;;;;;;8.32;4.00;;;19.50;99.90;;;;;;10286968;28;20079;-80
2022/10/18 18:37:37;;;;;;;6.72;3.75;;;19.50;99.90;;;;;;10286829;28;20105;-80
2022/10/18 18:42:40;;;;;;;11.13;4.22;;;19.40;99.90;;;;;;10287848;28;20480;-81
2022/10/18 18:47:42;;;;;;;10.55;5.10;;;19.30;99.90;;;;;;10288178;28;20385;-81
2022/10/18 18:52:44;;;;;;;9.63;4.55;;;19.20;99.90;;;;;;10261841;28;20051;-80
2022/10/18 18:57:47;;;;;;;9.25;4.97;;;19.10;99.90;;;;;;10277223;28;20105;-79
2022/10/18 19:02:49;;;;;;;13.07;4.65;;;19.00;99.90;;;;;;10257091;28;20081;-87
2022/10/18 19:07:51;;;;;;;9.85;4.53;;;19.00;99.90;;;;;;10285788;28;20074;-86
2022/10/18 19:12:55;;;;;;;10.70;4.57;;;19.10;99.90;;;;;;10258283;28;20055;-84
2022/10/18 19:17:57;;;;;;;8.18;5.10;;;19.00;99.90;;;;;;10249514;28;20517;-87
2022/10/18 19:22:58;;;;;;;8.77;4.97;;;18.90;99.90;;;;;;10269814;28;20828;-85
2022/10/18 19:28:02;;;;;;;16.33;4.15;;;18.90;99.90;;;;;;10261754;28;20081;-80
2022/10/18 19:33:04;;;;;;;12.32;4.75;;;18.80;99.90;;;;;;10290620;28;20102;-82
2022/10/18 19:38:07;;;;;;;11.80;4.38;;;18.80;99.90;;;;;;10270894;28;20051;-81
2022/10/18 19:43:10;;;;;;;11.77;4.80;;;18.80;99.90;;;;;;10261345;28;20058;-83
2022/10/18 19:48:12;;;;;;;10.32;4.45;;;18.70;99.90;;;;;;10256312;28;20051;-78
2022/10/18 19:53:14;;;;;;;9.88;4.47;;;18.60;99.90;;;;;;10284539;28;20199;-79
2022/10/18 19:58:17;;;;;;;9.93;4.90;;;18.60;99.90;;;;;;10260476;28;20114;-78
2022/10/18 20:03:19;;;;;;;9.73;4.57;;;18.50;99.90;;;;;;10270753;28;20190;-80
2022/10/18 20:08:21;;;;;;;11.13;4.65;;;18.30;99.90;;;;;;10250532;29;20084;-78
2022/10/18 20:13:24;;;;;;;10.48;4.55;;;18.20;99.90;;;;;;10265681;28;20488;-78
2022/10/18 20:18:27;;;;;;;14.88;5.00;;;18.20;99.90;;;;;;10249830;29;20087;-77
2022/10/18 20:23:31;;;;;;;11.65;4.68;;;18.00;99.90;;;;;;10258469;28;20074;-80
2022/10/18 20:28:34;;;;;;;11.70;4.60;;;17.90;99.90;;;;;;10248554;29;20199;-80
2022/10/18 20:33:37;;;;;;;11.82;4.05;;;17.90;99.90;;;;;;10247696;28;20454;-80
2022/10/18 20:38:41;;;;;;;11.07;4.47;;;17.90;99.90;;;;;;10247700;29;20142;-81
2022/10/18 20:43:49;;;;;;;13.73;5.68;;;17.90;99.90;;;;;;10263410;28;20047;-79
2022/10/18 20:48:53;;;;;;;16.60;5.05;;;17.70;99.90;;;;;;10267714;28;20178;-78
2022/10/18 20:53:55;;;;;;;13.07;4.18;;;17.60;99.90;;;;;;10281018;28;20051;-79
2022/10/18 20:58:58;;;;;;;11.43;4.30;;;17.40;99.90;;;;;;10251052;28;20099;-79
2022/10/18 21:04:03;;;;;;;13.88;4.45;;;17.40;99.90;;;;;;10275605;28;20109;-79
2022/10/18 21:09:08;;;;;;;13.60;5.15;;;17.30;99.90;;;;;;10298324;28;20523;-79
2022/10/18 21:14:13;;;;;;;32.92;18.10;;;17.20;99.90;;;;;;10261757;28;20050;-76
2022/10/18 21:19:19;;;;;;;24.15;10.80;;;17.20;99.90;;;;;;10296616;28;20454;-79
2022/10/18 21:24:22;;;;;;;16.42;4.72;;;17.20;99.90;;;;;;10273780;28;20078;-77
2022/10/18 21:29:26;;;;;;;12.38;4.75;;;17.10;99.90;;;;;;10258031;28;20075;-77
2022/10/18 21:34:28;;;;;;;16.45;4.85;;;17.00;99.90;;;;;;10288361;28;20070;-78
2022/10/18 21:39:30;;;;;;;14.20;4.40;;;16.90;99.90;;;;;;10272823;28;20078;-79
2022/10/18 21:44:33;;;;;;;14.02;4.47;;;17.00;99.90;;;;;;10299295;28;20054;-79
2022/10/18 21:49:35;;;;;;;15.07;4.80;;;16.90;99.90;;;;;;10264233;28;20051;-78
2022/10/18 21:54:37;;;;;;;10.50;4.68;;;16.90;99.90;;;;;;10258803;28;20055;-78
2022/10/18 21:59:40;;;;;;;13.70;5.15;;;16.90;99.90;;;;;;10259015;28;20051;-78
